Time;durP1;ratioP1;P1;durP2;ratioP2;P2;SDS_P1;SDS_P2;PMS_P1;PMS_P2;Temp;Humidity;BMP_temperature;BMP_pressure;BME280_temperature;BME280_humidity;BME280_pressure;Samples;Min_cycle;Max_cycle;Signal;HPM_P1;HPM_P2
2021/12/06 00:01:32;;;;;;;37.35;22.27;;;;;;;2.67;67.98;100244.40;1658726;85;21590;-69
2021/12/06 00:04:17;;;;;;;35.65;21.48;;;;;;;2.69;68.06;100246.81;1656841;84;22470;-69
2021/12/06 00:06:47;;;;;;;35.85;22.02;;;;;;;2.72;68.09;100254.30;1671782;84;21098;-69
2021/12/06 00:09:18;;;;;;;40.33;24.57;;;;;;;2.73;68.09;100252.78;1687802;83;21141;-68
2021/12/06 00:11:50;;;;;;;35.95;22.55;;;;;;;2.75;68.11;100249.92;1641443;87;21088;-69
2021/12/06 00:14:15;;;;;;;35.83;21.90;;;;;;;2.78;68.13;100249.50;1650067;85;21106;-68
2021/12/06 00:16:43;;;;;;;37.58;22.75;;;;;;;2.78;68.17;100246.86;1654294;85;21145;-69
2021/12/06 00:19:10;;;;;;;41.42;24.70;;;;;;;2.77;68.20;100243.42;1666919;84;21168;-69
2021/12/06 00:21:36;;;;;;;43.98;24.75;;;;;;;2.80;68.23;100244.83;1659487;85;21085;-69
2021/12/06 00:24:04;;;;;;;46.90;27.27;;;;;;;2.81;68.27;100236.69;1682805;83;21141;-69
2021/12/06 00:26:31;;;;;;;52.45;31.23;;;;;;;2.80;68.30;100235.08;1637372;86;21581;-69
2021/12/06 00:28:58;;;;;;;50.03;28.90;;;;;;;2.82;68.41;100244.09;1661146;84;21133;-69
2021/12/06 00:31:32;;;;;;;54.40;33.18;;;;;;;2.84;68.44;100239.94;1658869;85;21161;-70
2021/12/06 00:34:00;;;;;;;43.65;27.15;;;;;;;2.85;68.47;100242.34;1660837;85;21041;-69
2021/12/06 00:36:30;;;;;;;55.43;33.50;;;;;;;2.87;68.51;100238.19;1662261;84;21145;-69
2021/12/06 00:38:57;;;;;;;41.42;25.15;;;;;;;2.86;68.52;100236.03;1666734;84;21125;-69
2021/12/06 00:41:24;;;;;;;56.53;33.58;;;;;;;2.83;68.54;100233.85;1650831;85;21240;-68
2021/12/06 00:43:51;;;;;;;49.48;29.37;;;;;;;2.83;68.61;100237.81;1668054;85;21128;-69
2021/12/06 00:46:18;;;;;;;51.20;31.48;;;;;;;2.85;68.64;100235.75;1650476;85;22280;-68
2021/12/06 00:48:45;;;;;;;49.08;29.12;;;;;;;2.86;68.65;100230.76;1676657;84;21322;-69
2021/12/06 00:51:14;;;;;;;49.63;29.52;;;;;;;2.88;68.67;100231.88;1662874;85;21025;-68
2021/12/06 00:53:41;;;;;;;47.62;28.35;;;;;;;2.92;68.69;100227.27;1658642;85;21108;-69
2021/12/06 00:56:08;;;;;;;51.05;30.32;;;;;;;2.91;68.67;100225.66;1649394;84;21066;-68
2021/12/06 00:58:35;;;;;;;46.42;28.80;;;;;;;2.91;68.71;100227.50;1668568;85;21066;-69
2021/12/06 01:01:03;;;;;;;43.45;27.02;;;;;;;2.92;68.75;100220.67;1664782;84;21225;-68
2021/12/06 01:03:33;;;;;;;47.93;29.75;;;;;;;2.95;68.79;100216.29;1653822;85;21090;-67
2021/12/06 01:06:02;;;;;;;45.25;27.95;;;;;;;2.98;68.77;100214.55;1660469;85;21040;-69
2021/12/06 01:08:29;;;;;;;45.63;27.70;;;;;;;3.01;68.73;100215.44;1655910;84;21161;-68
2021/12/06 01:10:56;;;;;;;41.68;26.00;;;;;;;3.00;68.77;100215.66;1669141;84;21090;-69
2021/12/06 01:13:26;;;;;;;42.25;26.15;;;;;;;3.01;68.80;100221.23;1685422;85;21223;-69
2021/12/06 01:15:52;;;;;;;38.30;23.18;;;;;;;3.02;68.83;100213.08;1638894;86;21097;-68
2021/12/06 01:18:20;;;;;;;36.10;22.15;;;;;;;3.04;68.87;100217.64;1685557;83;21078;-68
2021/12/06 01:20:54;;;;;;;40.33;24.20;;;;;;;3.08;68.90;100215.38;1665185;84;21078;-69
2021/12/06 01:23:19;;;;;;;39.40;23.73;;;;;;;3.08;68.93;100207.46;1658891;85;21065;-69
2021/12/06 01:41:30;;;;;;;33.40;20.02;;;;;;;3.25;69.09;100199.28;1692604;83;21046;-68
2021/12/06 01:44:10;;;;;;;32.03;19.25;;;;;;;3.29;69.08;100194.38;1639185;85;21280;-69
2021/12/06 01:46:45;;;;;;;33.50;19.45;;;;;;;3.31;69.05;100194.97;1652462;86;22212;-69
2021/12/06 01:49:13;;;;;;;29.15;19.00;;;;;;;3.29;69.04;100183.81;1679241;85;21541;-69
2021/12/06 01:51:41;;;;;;;29.40;18.10;;;;;;;3.25;69.10;100177.36;1650456;85;21844;-69
2021/12/06 01:54:08;;;;;;;29.35;18.00;;;;;;;3.23;69.20;100176.80;1676391;83;21561;-69
2021/12/06 01:56:37;;;;;;;31.25;18.73;;;;;;;3.24;69.18;100172.60;1641025;86;21095;-67
2021/12/06 01:59:04;;;;;;;28.83;17.07;;;;;;;3.26;69.16;100175.04;1649526;84;21160;-68
2021/12/06 02:01:31;;;;;;;29.18;17.40;;;;;;;3.25;69.20;100172.09;1667629;85;21068;-68
2021/12/06 02:03:58;;;;;;;25.00;15.63;;;;;;;3.24;69.24;100170.48;1649534;85;21816;-69
2021/12/06 02:06:25;;;;;;;29.37;18.25;;;;;;;3.26;69.22;100175.04;1655953;85;21671;-68
2021/12/06 02:08:52;;;;;;;24.77;15.32;;;;;;;3.27;69.25;100179.28;1662283;85;21616;-69
2021/12/06 02:11:19;;;;;;;26.25;16.40;;;;;;;3.27;69.34;100177.45;1672917;84;21474;-68
2021/12/06 02:13:56;;;;;;;29.10;18.37;;;;;;;3.27;69.34;100174.81;1639185;86;21049;-68
2021/12/06 02:16:18;;;;;;;23.52;14.90;;;;;;;3.27;69.41;100180.09;1640816;86;21584;-67
2021/12/06 02:18:45;;;;;;;27.20;16.30;;;;;;;3.30;69.46;100184.13;1666000;85;21073;-70
2021/12/06 02:21:29;;;;;;;26.57;16.52;;;;;;;3.29;69.47;100176.73;1662314;85;21550;-69
2021/12/06 02:23:55;;;;;;;25.43;16.65;;;;;;;3.30;69.51;100180.17;1684751;83;21066;-68
2021/12/06 02:26:23;;;;;;;25.80;16.82;;;;;;;3.32;69.54;100183.38;1658712;85;21145;-66
2021/12/06 02:28:49;;;;;;;25.88;16.25;;;;;;;3.34;69.54;100187.14;1666079;85;21139;-68
2021/12/06 02:31:20;;;;;;;26.65;17.23;;;;;;;3.34;69.57;100182.66;1657074;85;21094;-68
2021/12/06 02:33:49;;;;;;;24.60;15.88;;;;;;;3.35;69.57;100178.98;1680786;85;21125;-68
2021/12/06 02:36:19;;;;;;;25.88;17.07;;;;;;;3.35;69.59;100174.23;1669407;84;21542;-68
2021/12/06 02:38:46;;;;;;;25.70;17.45;;;;;;;3.33;69.61;100167.86;1669929;85;21614;-68
2021/12/06 02:41:13;;;;;;;25.15;16.25;;;;;;;3.35;69.66;100167.62;1669900;85;21176;-68
2021/12/06 02:43:41;;;;;;;27.58;16.93;;;;;;;3.37;69.61;100176.95;1666301;84;21055;-68
2021/12/06 02:46:10;;;;;;;24.85;16.12;;;;;;;3.34;69.59;100172.10;1679966;83;21074;-68
2021/12/06 02:48:37;;;;;;;26.75;16.35;;;;;;;3.33;69.58;100170.50;1657394;86;21170;-68
2021/12/06 02:51:05;;;;;;;26.57;17.37;;;;;;;3.36;69.48;100175.86;1679257;84;21055;-68
2021/12/06 02:53:47;;;;;;;24.00;15.13;;;;;;;3.34;69.42;100168.14;1669447;86;21091;-68
2021/12/06 02:56:39;;;;;;;23.27;15.75;;;;;;;3.36;69.43;100167.94;1669634;85;21044;-67
2021/12/06 02:58:56;;;;;;;22.93;15.30;;;;;;;3.36;69.36;100170.58;1668548;85;21135;-68
2021/12/06 03:01:19;;;;;;;24.30;15.10;;;;;;;3.37;69.27;100169.55;1681211;83;21771;-68
2021/12/06 03:03:56;;;;;;;25.43;15.60;;;;;;;3.36;69.18;100169.26;1632066;87;21065;-68
2021/12/06 03:06:24;;;;;;;23.98;14.78;;;;;;;3.34;69.15;100171.30;1659053;86;21177;-68
2021/12/06 03:09:01;;;;;;;26.77;16.37;;;;;;;3.34;69.18;100170.78;1631933;87;21062;-68
2021/12/06 03:11:38;;;;;;;25.25;15.93;;;;;;;3.34;69.14;100166.83;1667030;84;21091;-67
2021/12/06 03:14:07;;;;;;;24.20;15.70;;;;;;;3.34;69.09;100177.38;1656670;86;21147;-68
2021/12/06 03:16:34;;;;;;;26.73;15.48;;;;;;;3.34;69.07;100173.94;1666344;84;21576;-67
2021/12/06 03:19:01;;;;;;;26.82;16.60;;;;;;;3.32;69.04;100170.19;1685795;83;21191;-67
2021/12/06 03:21:28;;;;;;;26.30;16.67;;;;;;;3.32;69.05;100174.14;1669918;85;21080;-68
2021/12/06 03:23:56;;;;;;;26.12;16.10;;;;;;;3.29;69.04;100168.81;1670165;84;21541;-67
2021/12/06 03:26:24;;;;;;;25.45;16.73;;;;;;;3.27;69.05;100172.17;1635301;87;21066;-67
2021/12/06 03:28:52;;;;;;;26.85;16.30;;;;;;;3.27;69.07;100180.61;1668962;84;21117;-67
2021/12/06 03:31:20;;;;;;;27.15;17.40;;;;;;;3.28;69.09;100183.53;1686855;85;21149;-67
2021/12/06 03:33:49;;;;;;;23.15;14.85;;;;;;;3.27;69.07;100178.77;1686647;84;21054;-68
2021/12/06 03:36:18;;;;;;;24.85;16.17;;;;;;;3.28;69.07;100179.57;1658045;86;21137;-68
2021/12/06 03:38:46;;;;;;;24.95;14.98;;;;;;;3.28;68.99;100183.53;1685654;84;21506;-69
2021/12/06 03:41:14;;;;;;;22.27;13.90;;;;;;;3.31;69.03;100177.81;1652682;83;21577;-68
2021/12/06 03:43:40;;;;;;;23.42;14.35;;;;;;;3.29;69.04;100173.25;1631760;86;21120;-68
2021/12/06 03:46:08;;;;;;;25.60;16.00;;;;;;;3.29;68.98;100179.86;1669558;86;20987;-68
2021/12/06 03:48:37;;;;;;;24.20;14.75;;;;;;;3.28;68.99;100183.02;1669692;86;21064;-68
2021/12/06 03:51:03;;;;;;;22.60;14.05;;;;;;;3.31;69.00;100185.73;1669676;86;21054;-68
2021/12/06 03:53:30;;;;;;;23.60;15.00;;;;;;;3.32;68.97;100186.54;1669694;86;21109;-68
2021/12/06 03:56:00;;;;;;;23.05;14.47;;;;;;;3.31;68.96;100190.21;1669770;86;21538;-67
2021/12/06 03:58:27;;;;;;;24.15;14.35;;;;;;;3.31;69.02;100192.34;1669788;86;21150;-68
2021/12/06 04:00:54;;;;;;;24.40;14.63;;;;;;;3.35;69.01;100197.47;1669209;86;21026;-68
2021/12/06 04:03:23;;;;;;;21.80;13.58;;;;;;;3.37;69.02;100197.27;1669748;86;20970;-67
2021/12/06 04:05:51;;;;;;;22.00;13.43;;;;;;;3.38;68.96;100194.39;1669531;86;21451;-68
2021/12/06 04:08:18;;;;;;;23.77;14.28;;;;;;;3.38;69.00;100189.11;1669604;86;21462;-67
2021/12/06 04:10:45;;;;;;;24.18;14.47;;;;;;;3.38;68.95;100185.16;1669617;86;21058;-68
2021/12/06 04:13:12;;;;;;;23.60;13.75;;;;;;;3.38;68.90;100181.71;1669643;86;21085;-68
2021/12/06 04:15:40;;;;;;;22.42;13.48;;;;;;;3.37;68.90;100176.95;1670900;84;21470;-67
2021/12/06 04:18:08;;;;;;;23.05;13.30;;;;;;;3.38;68.85;100169.83;1687985;85;21023;-68
2021/12/06 04:20:36;;;;;;;21.80;13.28;;;;;;;3.38;68.81;100164.03;1642479;86;21852;-68
2021/12/06 04:23:05;;;;;;;22.20;13.48;;;;;;;3.37;68.80;100166.91;1642571;87;21086;-68
2021/12/06 04:25:34;;;;;;;21.07;12.82;;;;;;;3.36;68.76;100167.42;1687658;85;21556;-67
2021/12/06 04:28:06;;;;;;;20.12;11.78;;;;;;;3.36;68.81;100158.70;1642632;87;21030;-69
2021/12/06 04:30:33;;;;;;;22.52;13.40;;;;;;;3.35;68.80;100175.55;1687866;85;21007;-67
2021/12/06 04:33:01;;;;;;;20.68;12.40;;;;;;;3.35;68.83;100171.06;1642066;87;21188;-67
2021/12/06 04:35:29;;;;;;;19.77;11.90;;;;;;;3.36;68.83;100176.66;1687852;85;21066;-68
2021/12/06 04:37:55;;;;;;;24.02;13.93;;;;;;;3.36;68.82;100174.02;1671140;85;21002;-68
2021/12/06 04:40:22;;;;;;;22.37;13.20;;;;;;;3.33;68.81;100174.45;1671142;85;21046;-67
2021/12/06 04:42:50;;;;;;;22.22;12.80;;;;;;;3.34;68.88;100177.90;1671059;85;21588;-67
2021/12/06 04:45:18;;;;;;;22.30;13.78;;;;;;;3.32;68.90;100174.14;1669389;85;21128;-68
2021/12/06 04:47:47;;;;;;;22.75;13.08;;;;;;;3.33;68.94;100177.61;1669636;86;21086;-68
2021/12/06 04:50:17;;;;;;;23.45;14.20;;;;;;;3.34;68.92;100180.02;1669517;86;21089;-67
2021/12/06 04:52:44;;;;;;;22.87;13.90;;;;;;;3.34;68.91;100173.42;1669809;86;21086;-68
2021/12/06 04:55:37;;;;;;;25.43;16.48;;;;;;;3.32;68.97;100178.63;1669760;86;21034;-67
2021/12/06 04:58:05;;;;;;;25.25;13.93;;;;;;;3.31;69.03;100187.05;1669462;86;21354;-67
2021/12/06 05:00:55;;;;;;;25.45;15.30;;;;;;;3.35;69.08;100183.47;1669640;86;21051;-68
2021/12/06 05:03:22;;;;;;;23.50;14.50;;;;;;;3.34;69.09;100181.34;1669467;86;21121;-68
2021/12/06 05:05:54;;;;;;;24.10;14.83;;;;;;;3.30;69.14;100177.53;1669657;86;21031;-67
2021/12/06 05:08:27;;;;;;;26.10;15.55;;;;;;;3.28;69.22;100175.61;1670080;86;21027;-68
2021/12/06 05:10:57;;;;;;;23.30;13.83;;;;;;;3.25;69.31;100178.16;1669462;86;21224;-68
2021/12/06 05:13:24;;;;;;;23.18;13.95;;;;;;;3.28;69.34;100178.25;1670220;85;21030;-67
2021/12/06 05:15:51;;;;;;;25.02;15.08;;;;;;;3.31;69.34;100179.14;1671255;85;21454;-68
2021/12/06 05:18:18;;;;;;;24.75;14.78;;;;;;;3.33;69.35;100181.05;1670841;85;21058;-68
2021/12/06 05:20:46;;;;;;;25.70;14.35;;;;;;;3.34;69.33;100185.30;1671195;85;21057;-68
2021/12/06 05:23:14;;;;;;;23.07;14.30;;;;;;;3.35;69.33;100185.59;1670968;85;21105;-67
2021/12/06 05:25:41;;;;;;;25.05;14.87;;;;;;;3.36;69.31;100187.74;1671216;85;20970;-67
2021/12/06 05:28:08;;;;;;;25.32;14.90;;;;;;;3.38;69.36;100193.59;1671249;85;21105;-68
2021/12/06 05:30:37;;;;;;;27.95;15.45;;;;;;;3.39;69.35;100193.39;1670627;84;21040;-68
2021/12/06 05:33:06;;;;;;;25.97;15.18;;;;;;;3.40;69.35;100197.63;1671349;85;21221;-67
2021/12/06 05:35:33;;;;;;;27.77;16.23;;;;;;;3.42;69.37;100188.99;1671132;84;21695;-67
2021/12/06 05:38:01;;;;;;;24.32;14.95;;;;;;;3.44;69.38;100191.41;1670591;85;20973;-67
2021/12/06 05:40:33;;;;;;;25.68;14.85;;;;;;;3.46;69.36;100192.00;1670772;85;21079;-67
2021/12/06 05:43:00;;;;;;;24.80;14.50;;;;;;;3.49;69.33;100198.16;1669904;85;21034;-68
2021/12/06 05:45:30;;;;;;;24.52;15.05;;;;;;;3.52;69.31;100191.09;1687535;85;21048;-68
2021/12/06 05:47:56;;;;;;;25.82;15.25;;;;;;;3.55;69.30;100190.66;1671481;85;21249;-68
2021/12/06 05:50:24;;;;;;;27.70;16.30;;;;;;;3.55;69.22;100189.34;1687325;85;21627;-68
2021/12/06 05:52:54;;;;;;;26.65;16.30;;;;;;;3.55;69.22;100200.42;1671292;85;21572;-67
2021/12/06 05:55:22;;;;;;;26.95;16.05;;;;;;;3.52;69.30;100198.53;1687843;85;21609;-68
2021/12/06 05:57:49;;;;;;;28.40;17.73;;;;;;;3.59;69.23;100205.58;1671154;85;21031;-68
2021/12/06 06:00:17;;;;;;;26.70;16.17;;;;;;;3.63;69.18;100202.79;1687827;85;21241;-67
2021/12/06 06:02:46;;;;;;;25.57;15.68;;;;;;;3.66;69.09;100199.20;1671247;85;21034;-66
2021/12/06 06:05:12;;;;;;;27.42;16.62;;;;;;;3.67;69.01;100201.31;1687674;85;21100;-67
2021/12/06 06:07:40;;;;;;;27.87;17.02;;;;;;;3.64;68.99;100199.11;1670906;85;21015;-68
2021/12/06 06:10:08;;;;;;;25.90;16.42;;;;;;;3.63;69.06;100204.11;1687994;85;21098;-69
2021/12/06 06:12:35;;;;;;;27.65;16.85;;;;;;;3.64;69.06;100204.39;1671048;84;21130;-67
2021/12/06 06:15:04;;;;;;;29.18;16.95;;;;;;;3.64;69.04;100212.31;1671181;85;21611;-68
2021/12/06 06:17:39;;;;;;;27.13;15.55;;;;;;;3.65;69.13;100216.56;1671084;85;21117;-67
2021/12/06 06:20:00;;;;;;;27.22;16.73;;;;;;;3.71;69.05;100219.65;1670960;85;21051;-68
2021/12/06 06:22:26;;;;;;;29.00;16.95;;;;;;;3.70;69.03;100223.33;1670832;85;21057;-68
2021/12/06 06:24:53;;;;;;;29.30;16.77;;;;;;;3.69;69.01;100222.53;1671305;85;21130;-67
2021/12/06 06:27:20;;;;;;;30.00;17.60;;;;;;;3.72;69.03;100223.41;1670887;85;21505;-68
2021/12/06 06:29:47;;;;;;;30.90;17.17;;;;;;;3.72;69.09;100226.56;1670980;85;21086;-70
2021/12/06 06:32:14;;;;;;;30.10;17.85;;;;;;;3.74;69.08;100233.74;1670888;85;21077;-68
2021/12/06 06:34:41;;;;;;;30.12;17.57;;;;;;;3.72;69.04;100226.05;1671235;85;21718;-68
2021/12/06 06:37:08;;;;;;;30.35;16.87;;;;;;;3.74;69.02;100228.45;1671130;85;21215;-67
2021/12/06 06:39:35;;;;;;;32.95;18.85;;;;;;;3.74;68.99;100219.22;1670905;84;21027;-68
2021/12/06 06:42:03;;;;;;;31.07;17.50;;;;;;;3.72;69.07;100214.16;1670245;84;21039;-68
2021/12/06 06:44:30;;;;;;;32.38;18.70;;;;;;;3.80;69.12;100217.53;1686314;85;21625;-67
2021/12/06 06:46:56;;;;;;;32.35;18.40;;;;;;;3.84;69.02;100213.42;1658509;86;21067;-68
2021/12/06 06:49:25;;;;;;;36.93;20.20;;;;;;;3.80;69.01;100209.09;1686045;85;21196;-67
2021/12/06 06:51:51;;;;;;;34.25;18.87;;;;;;;3.85;68.91;100208.42;1669725;86;21048;-68
2021/12/06 06:54:18;;;;;;;33.67;19.87;;;;;;;3.88;68.87;100208.81;1669708;86;21101;-68
2021/12/06 06:56:45;;;;;;;34.67;19.60;;;;;;;3.91;68.88;100210.98;1670831;85;21012;-68
2021/12/06 06:59:12;;;;;;;35.70;18.98;;;;;;;3.94;68.86;100217.67;1671085;85;21064;-67
2021/12/06 07:01:38;;;;;;;33.88;19.80;;;;;;;3.95;68.89;100212.17;1671242;85;21154;-69
2021/12/06 07:04:05;;;;;;;37.23;21.87;;;;;;;3.98;68.93;100220.98;1670849;84;21032;-68
2021/12/06 07:06:32;;;;;;;33.20;18.57;;;;;;;4.02;68.93;100224.51;1670347;84;21023;-68
2021/12/06 07:08:59;;;;;;;36.58;19.50;;;;;;;4.02;69.00;100222.66;1671132;85;21121;-68
2021/12/06 07:11:28;;;;;;;34.70;20.02;;;;;;;4.02;69.04;100222.66;1671239;85;20980;-69
2021/12/06 07:13:56;;;;;;;36.17;20.75;;;;;;;4.05;69.00;100230.16;1670713;85;21549;-68
2021/12/06 07:16:23;;;;;;;34.55;19.98;;;;;;;4.07;68.95;100231.24;1671065;85;21099;-68
2021/12/06 07:18:49;;;;;;;38.80;20.77;;;;;;;4.09;68.98;100222.06;1671058;85;21038;-68
2021/12/06 07:21:17;;;;;;;36.53;20.80;;;;;;;4.16;68.99;100227.27;1671090;84;21083;-70
2021/12/06 07:23:45;;;;;;;33.40;18.98;;;;;;;4.21;68.98;100217.66;1671049;85;21032;-69
2021/12/06 07:26:15;;;;;;;30.48;18.25;;;;;;;4.29;68.88;100211.76;1670373;84;21172;-69
2021/12/06 07:28:43;;;;;;;33.25;18.73;;;;;;;4.33;68.71;100220.84;1670965;85;20972;-69
2021/12/06 07:31:14;;;;;;;34.65;21.05;;;;;;;4.30;68.64;100219.97;1670699;84;21036;-68
2021/12/06 07:33:45;;;;;;;33.88;19.77;;;;;;;4.24;68.71;100216.37;1680242;85;20991;-69
2021/12/06 07:36:12;;;;;;;35.35;20.35;;;;;;;4.31;68.64;100217.13;1687165;85;21087;-68
2021/12/06 07:38:39;;;;;;;35.85;19.23;;;;;;;4.32;68.53;100216.59;1675287;85;21155;-68
2021/12/06 07:42:02;;;;;;;31.37;19.55;;;;;;;4.31;68.53;100214.48;1677488;85;21011;-67
2021/12/06 07:45:25;;;;;;;36.70;20.77;;;;;;;4.36;68.49;100227.02;1658633;86;21581;-67
2021/12/06 07:48:06;;;;;;;37.58;21.23;;;;;;;4.33;68.50;100230.10;1686327;85;21107;-68
2021/12/06 07:50:33;;;;;;;34.27;19.50;;;;;;;4.40;68.45;100242.72;1640999;87;21062;-68
2021/12/06 07:53:01;;;;;;;38.40;21.00;;;;;;;4.43;68.38;100240.95;1641226;87;21142;-68
2021/12/06 07:55:31;;;;;;;36.90;20.77;;;;;;;4.45;68.37;100237.05;1641045;87;21083;-68
2021/12/06 07:57:58;;;;;;;35.17;20.02;;;;;;;4.49;68.31;100238.73;1640881;86;21075;-68
2021/12/06 08:00:26;;;;;;;40.92;22.15;;;;;;;4.55;68.15;100235.72;1641035;86;21086;-67
2021/12/06 08:02:53;;;;;;;36.45;20.75;;;;;;;4.59;68.16;100242.16;1669776;86;20987;-69
2021/12/06 08:05:33;;;;;;;34.15;19.25;;;;;;;4.62;68.07;100247.00;1669565;86;21126;-69
2021/12/06 08:08:11;;;;;;;34.70;19.35;;;;;;;4.65;67.96;100255.81;1669637;86;21075;-68
2021/12/06 08:10:44;;;;;;;35.50;20.32;;;;;;;4.64;67.90;100252.37;1669892;84;22129;-68
2021/12/06 08:13:13;;;;;;;33.23;19.07;;;;;;;4.64;67.91;100251.05;1686861;83;21118;-68
2021/12/06 08:15:40;;;;;;;33.88;20.02;;;;;;;4.68;67.86;100248.75;1660018;86;21004;-68
2021/12/06 08:18:07;;;;;;;34.30;19.52;;;;;;;4.72;67.79;100248.59;1687351;83;21138;-68
2021/12/06 08:20:35;;;;;;;30.57;18.50;;;;;;;4.72;67.84;100251.23;1671204;85;21032;-67
2021/12/06 08:23:04;;;;;;;35.73;20.77;;;;;;;4.78;67.81;100254.83;1671162;85;21024;-68
2021/12/06 08:25:30;;;;;;;29.52;18.15;;;;;;;4.81;67.74;100243.27;1647904;85;21055;-68
2021/12/06 08:27:57;;;;;;;37.03;20.72;;;;;;;4.83;67.70;100241.19;1671443;85;21067;-68
2021/12/06 08:30:25;;;;;;;35.60;19.57;;;;;;;4.86;67.68;100246.55;1671076;85;21126;-67
2021/12/06 08:32:55;;;;;;;37.78;21.40;;;;;;;4.86;67.60;100242.05;1671036;85;21154;-67
2021/12/06 08:35:22;;;;;;;33.95;20.72;;;;;;;4.87;67.58;100231.78;1671154;85;21483;-68
2021/12/06 08:37:48;;;;;;;31.97;18.80;;;;;;;4.91;67.57;100232.94;1671023;85;21024;-70
2021/12/06 08:40:16;;;;;;;31.27;18.30;;;;;;;5.00;67.48;100235.23;1669977;84;21070;-68
2021/12/06 08:42:43;;;;;;;30.88;17.80;;;;;;;5.04;67.40;100229.27;1669592;86;21338;-68
2021/12/06 08:45:10;;;;;;;33.73;20.35;;;;;;;5.08;67.36;100227.78;1669749;86;21035;-69
2021/12/06 08:47:38;;;;;;;37.03;21.07;;;;;;;5.08;67.30;100222.48;1669660;86;20995;-68
2021/12/06 08:50:09;;;;;;;35.70;20.72;;;;;;;5.09;67.35;100219.31;1669520;86;21200;-70
2021/12/06 08:52:36;;;;;;;31.75;19.62;;;;;;;5.11;67.33;100219.90;1669725;86;21042;-68
2021/12/06 08:55:06;;;;;;;32.17;19.00;;;;;;;5.15;67.36;100215.75;1669767;86;21236;-70
2021/12/06 08:57:34;;;;;;;30.77;18.20;;;;;;;5.20;67.27;100213.73;1669585;86;21082;-71
2021/12/06 09:00:03;;;;;;;32.75;18.75;;;;;;;5.18;67.14;100202.86;1669747;86;21453;-70
2021/12/06 09:02:31;;;;;;;33.23;19.07;;;;;;;5.15;67.03;100199.87;1670714;85;21099;-69
2021/12/06 09:04:59;;;;;;;32.38;18.85;;;;;;;5.08;67.03;100192.04;1671250;85;21103;-67
2021/12/06 09:07:26;;;;;;;32.70;19.90;;;;;;;5.04;66.99;100190.09;1671063;85;21823;-69
2021/12/06 09:09:56;;;;;;;33.70;20.37;;;;;;;4.98;67.04;100193.66;1665057;84;21085;-70
2021/12/06 09:12:26;;;;;;;34.43;19.70;;;;;;;4.91;67.09;100187.94;1669423;85;21113;-69
2021/12/06 09:14:56;;;;;;;32.40;18.95;;;;;;;4.90;67.17;100183.69;1685235;85;21629;-69
2021/12/06 09:17:24;;;;;;;35.58;21.42;;;;;;;4.90;67.27;100186.83;1670551;85;21554;-68
2021/12/06 09:19:50;;;;;;;33.70;19.25;;;;;;;4.91;67.32;100187.94;1669443;85;21201;-69
2021/12/06 09:22:18;;;;;;;32.85;19.82;;;;;;;4.96;67.18;100181.15;1670369;85;21035;-68
2021/12/06 09:24:45;;;;;;;37.33;21.20;;;;;;;4.96;67.18;100175.86;1671050;85;21036;-68
2021/12/06 09:27:12;;;;;;;37.28;21.80;;;;;;;4.96;67.20;100173.21;1670933;85;21048;-70
2021/12/06 09:29:40;;;;;;;33.10;18.70;;;;;;;4.93;67.17;100172.63;1669627;85;20974;-69
2021/12/06 09:32:09;;;;;;;34.20;19.80;;;;;;;4.94;67.20;100173.45;1670354;85;21505;-67
2021/12/06 09:34:40;;;;;;;34.18;19.32;;;;;;;4.93;67.19;100166.01;1671245;85;21086;-69
2021/12/06 09:37:07;;;;;;;32.98;19.65;;;;;;;4.89;67.21;100167.51;1668696;85;21075;-70
2021/12/06 09:39:34;;;;;;;32.88;20.10;;;;;;;4.91;67.35;100171.27;1667946;84;21096;-69
2021/12/06 09:42:03;;;;;;;33.38;18.77;;;;;;;4.91;67.33;100165.45;1667768;85;21537;-69
2021/12/06 09:44:29;;;;;;;30.52;18.17;;;;;;;4.93;67.30;100163.36;1670019;85;21137;-68
2021/12/06 09:46:56;;;;;;;30.70;18.20;;;;;;;4.97;67.35;100158.44;1669996;85;21032;-68
2021/12/06 09:49:24;;;;;;;30.43;17.15;;;;;;;4.96;67.30;100152.03;1669564;85;21592;-67
2021/12/06 09:51:56;;;;;;;29.32;16.48;;;;;;;4.93;67.29;100154.09;1670158;85;21541;-68
2021/12/06 09:54:26;;;;;;;28.70;17.60;;;;;;;4.88;67.29;100152.67;1670741;85;21165;-69
2021/12/06 09:56:53;;;;;;;30.10;17.10;;;;;;;4.86;67.32;100153.93;1670728;85;21904;-67
2021/12/06 09:59:24;;;;;;;33.08;18.35;;;;;;;4.83;67.41;100159.16;1670669;85;21035;-67
2021/12/06 10:01:56;;;;;;;33.73;19.57;;;;;;;4.82;67.43;100151.45;1671011;85;21001;-68
2021/12/06 10:04:24;;;;;;;;;;;;;;;4.79;67.53;100152.72;1673900;85;21106;-70
2021/12/06 10:06:52;;;;;;;30.97;16.42;;;;;;;4.78;67.66;100152.44;1671037;85;20173;-66
2021/12/06 10:09:19;;;;;;;29.52;16.77;;;;;;;4.78;67.68;100137.08;1670248;84;21112;-66
2021/12/06 10:11:47;;;;;;;31.68;17.57;;;;;;;4.72;67.71;100137.47;1669318;86;21490;-68
2021/12/06 10:14:15;;;;;;;31.57;17.48;;;;;;;4.66;67.79;100141.02;1651779;85;21057;-67
2021/12/06 10:16:43;;;;;;;24.37;13.93;;;;;;;4.62;67.90;100139.36;1643586;85;20999;-66
2021/12/06 10:19:12;;;;;;;27.75;16.25;;;;;;;4.65;68.02;100130.16;1659862;85;21018;-68
2021/12/06 10:21:39;;;;;;;23.25;13.40;;;;;;;4.66;68.08;100129.12;1682070;84;22290;-67
2021/12/06 10:24:13;;;;;;;28.05;16.50;;;;;;;4.68;68.07;100117.80;1699151;84;21543;-67
2021/12/06 10:26:41;;;;;;;28.95;15.63;;;;;;;4.66;68.09;100125.16;1699307;83;20991;-68
2021/12/06 10:29:19;;;;;;;26.97;14.47;;;;;;;4.63;68.21;100121.64;1699102;84;21027;-68
2021/12/06 10:31:43;;;;;;;29.72;16.07;;;;;;;4.63;68.27;100123.76;1676179;84;21077;-68
2021/12/06 10:34:16;;;;;;;26.35;14.78;;;;;;;4.61;68.35;100121.87;1658834;86;21117;-67
2021/12/06 10:36:43;;;;;;;27.45;16.40;;;;;;;4.59;68.44;100115.20;1619522;87;21085;-68
2021/12/06 10:39:09;;;;;;;28.60;16.75;;;;;;;4.58;68.56;100117.56;1684804;85;21110;-68
2021/12/06 10:41:37;;;;;;;26.45;15.55;;;;;;;4.57;68.69;100118.05;1668456;86;21046;-67
2021/12/06 10:44:11;;;;;;;27.82;16.02;;;;;;;4.64;68.67;100111.34;1668563;86;21113;-68
2021/12/06 10:46:46;;;;;;;28.85;16.65;;;;;;;4.66;68.69;100125.95;1669073;86;21933;-68
2021/12/06 10:49:20;;;;;;;25.72;14.00;;;;;;;4.71;68.62;100123.96;1670362;84;21586;-67
2021/12/06 10:51:48;;;;;;;25.10;14.90;;;;;;;4.75;68.53;100122.46;1671099;85;21028;-68
2021/12/06 10:54:30;;;;;;;23.75;14.83;;;;;;;4.75;68.49;100133.05;1670804;85;21076;-68
2021/12/06 10:56:52;;;;;;;26.07;15.40;;;;;;;4.80;68.40;100133.67;1669937;85;20972;-68
2021/12/06 10:59:23;;;;;;;26.62;14.80;;;;;;;4.82;68.41;100128.45;1670892;85;21594;-68
2021/12/06 11:01:53;;;;;;;24.82;15.15;;;;;;;4.82;68.34;100133.73;1671032;85;21093;-67
2021/12/06 11:04:24;;;;;;;25.48;14.93;;;;;;;4.79;68.26;100126.25;1670937;85;21084;-67
2021/12/06 11:06:53;;;;;;;22.82;14.75;;;;;;;4.79;68.32;100117.52;1671375;84;20992;-67
2021/12/06 11:09:26;;;;;;;25.37;15.85;;;;;;;4.74;68.37;100106.31;1669564;86;20987;-68
2021/12/06 11:11:57;;;;;;;27.17;16.48;;;;;;;4.75;68.30;100105.27;1669429;86;21134;-67
2021/12/06 11:14:31;;;;;;;32.15;18.77;;;;;;;4.74;68.42;100108.95;1669593;86;21071;-67
2021/12/06 11:17:01;;;;;;;28.57;17.62;;;;;;;4.81;68.41;100110.97;1668473;86;20995;-67
2021/12/06 11:19:29;;;;;;;32.48;18.95;;;;;;;4.87;68.38;100106.08;1669623;86;20990;-67
2021/12/06 11:21:58;;;;;;;30.80;17.07;;;;;;;4.81;68.47;100103.03;1669451;86;21034;-68
2021/12/06 11:24:41;;;;;;;27.45;16.65;;;;;;;4.88;68.31;100101.59;1669682;86;21174;-67
2021/12/06 11:27:20;;;;;;;30.15;16.97;;;;;;;4.86;68.28;100097.84;1669512;84;21054;-66
2021/12/06 11:29:54;;;;;;;25.48;15.72;;;;;;;4.85;68.33;100090.94;1669547;86;21075;-67
2021/12/06 11:32:30;;;;;;;29.52;17.25;;;;;;;4.82;68.33;100086.11;1669518;86;21078;-68
2021/12/06 11:35:04;;;;;;;33.23;18.82;;;;;;;4.82;68.41;100086.11;1669896;86;21667;-67
2021/12/06 11:37:35;;;;;;;29.23;16.32;;;;;;;4.83;68.47;100076.33;1669738;86;21186;-67
2021/12/06 11:40:30;;;;;;;31.17;18.40;;;;;;;4.86;68.51;100080.63;1670438;85;21023;-67
2021/12/06 11:43:13;;;;;;;28.77;16.70;;;;;;;4.87;68.54;100080.95;1671053;84;21081;-67